createdAt,value
2018-12-19T00:02:03.861Z,8.33
2018-12-19T00:04:31.996Z,7.80
2018-12-19T00:07:00.114Z,7.73
2018-12-19T00:09:28.234Z,7.67
2018-12-19T00:11:56.328Z,7.63
2018-12-19T00:14:24.458Z,7.17
2018-12-19T00:16:52.607Z,7.57
2018-12-19T00:19:20.734Z,7.80
2018-12-19T00:21:48.858Z,6.97
2018-12-19T00:24:17.043Z,7.63
2018-12-19T00:26:45.157Z,6.70
2018-12-19T00:29:13.267Z,6.30
2018-12-19T00:31:41.394Z,5.70
2018-12-19T00:34:09.525Z,7.47
2018-12-19T00:36:37.743Z,7.90
2018-12-19T00:39:09.769Z,6.60
2018-12-19T00:41:37.254Z,6.37
2018-12-19T00:44:05.370Z,7.10
2018-12-19T00:46:33.482Z,7.00
2018-12-19T00:49:01.603Z,7.40
2018-12-19T00:51:30.953Z,7.10
2018-12-19T00:53:59.096Z,7.07
2018-12-19T00:56:27.222Z,7.03
2018-12-19T00:58:55.343Z,7.10
2018-12-19T01:01:23.451Z,7.13
2018-12-19T01:03:52.088Z,6.60
2018-12-19T01:06:20.391Z,7.17
2018-12-19T01:08:48.545Z,6.90
2018-12-19T01:11:16.662Z,6.17
2018-12-19T01:13:44.803Z,6.80
2018-12-19T01:16:12.935Z,6.37
2018-12-19T01:18:41.147Z,7.37
2018-12-19T01:21:09.257Z,6.80
2018-12-19T01:23:37.395Z,6.97
2018-12-19T01:26:05.511Z,7.27
2018-12-19T01:28:33.665Z,6.70
2018-12-19T01:31:01.787Z,7.97
2018-12-19T01:33:29.926Z,7.30
2018-12-19T01:35:58.034Z,7.53
2018-12-19T01:38:26.190Z,6.60
2018-12-19T01:40:54.321Z,6.93
2018-12-19T01:43:22.449Z,7.60
2018-12-19T01:45:50.589Z,7.37
2018-12-19T01:48:18.720Z,6.07
2018-12-19T01:50:46.841Z,6.60
2018-12-19T01:53:14.969Z,6.30
2018-12-19T01:55:43.475Z,7.07
2018-12-19T01:58:11.659Z,6.90
2018-12-19T02:00:39.785Z,6.33
2018-12-19T02:03:07.896Z,6.70
2018-12-19T02:05:36.028Z,7.17
2018-12-19T02:08:04.134Z,7.57
2018-12-19T02:10:32.255Z,7.63
2018-12-19T02:13:00.364Z,7.47
2018-12-19T02:15:28.484Z,6.03
2018-12-19T02:17:56.599Z,7.17
2018-12-19T02:20:24.723Z,7.17
2018-12-19T02:22:52.835Z,8.60
2018-12-19T02:25:20.969Z,7.73
2018-12-19T02:27:49.103Z,7.70
2018-12-19T02:30:17.214Z,7.23
2018-12-19T02:32:45.332Z,7.47
2018-12-19T02:35:13.459Z,7.40
2018-12-19T02:37:41.586Z,7.93
2018-12-19T02:40:09.722Z,8.20
2018-12-19T02:42:37.855Z,7.53
2018-12-19T02:45:05.981Z,7.77
2018-12-19T02:47:34.103Z,6.77
2018-12-19T02:50:02.229Z,7.73
2018-12-19T02:52:30.347Z,7.40
2018-12-19T02:54:58.495Z,6.97
2018-12-19T02:57:26.600Z,6.97
2018-12-19T02:59:54.719Z,6.90
2018-12-19T03:02:22.832Z,7.00
2018-12-19T03:04:50.963Z,6.83
2018-12-19T03:07:19.081Z,6.87
2018-12-19T03:09:47.208Z,6.97
2018-12-19T03:12:15.329Z,7.20
2018-12-19T03:14:43.480Z,7.97
2018-12-19T03:17:11.597Z,6.87
2018-12-19T03:19:39.750Z,6.57
2018-12-19T03:22:07.868Z,7.50
2018-12-19T03:24:36.014Z,5.93
2018-12-19T03:27:04.115Z,6.63
2018-12-19T03:29:32.232Z,7.33
2018-12-19T03:32:00.367Z,6.83
2018-12-19T03:34:28.486Z,7.47
2018-12-19T03:36:56.601Z,6.93
2018-12-19T03:39:24.727Z,7.30
2018-12-19T03:41:52.857Z,7.43
2018-12-19T03:44:20.982Z,6.77
2018-12-19T03:46:49.092Z,7.37
2018-12-19T03:49:17.695Z,7.20
2018-12-19T03:51:46.007Z,7.20
2018-12-19T03:54:14.214Z,7.10
2018-12-19T03:56:43.504Z,7.37
2018-12-19T03:59:11.655Z,7.43
2018-12-19T04:01:39.777Z,6.07
2018-12-19T04:04:07.894Z,6.33
2018-12-19T04:06:36.027Z,7.33
2018-12-19T04:09:06.338Z,6.23
2018-12-19T04:11:34.460Z,6.97
2018-12-19T04:14:02.570Z,5.50
2018-12-19T04:16:30.683Z,6.53
2018-12-19T04:18:58.797Z,5.87
2018-12-19T04:21:26.936Z,5.80
2018-12-19T04:23:55.062Z,5.33
2018-12-19T04:26:23.213Z,5.83
2018-12-19T04:28:51.341Z,5.87
2018-12-19T04:31:19.460Z,6.70
2018-12-19T04:33:47.586Z,5.93
2018-12-19T04:36:15.696Z,5.83
2018-12-19T04:38:43.982Z,6.30
2018-12-19T04:41:12.104Z,6.90
2018-12-19T04:43:40.249Z,7.23
2018-12-19T04:46:08.384Z,6.47
2018-12-19T04:48:36.513Z,6.50
2018-12-19T04:51:04.655Z,7.00
2018-12-19T04:53:32.775Z,8.00
2018-12-19T04:56:00.914Z,6.50
2018-12-19T04:58:29.033Z,5.83
2018-12-19T05:00:57.160Z,7.47
2018-12-19T05:03:25.270Z,6.43
2018-12-19T05:05:53.403Z,6.40
2018-12-19T05:08:21.510Z,7.63
2018-12-19T05:10:49.642Z,8.40
2018-12-19T05:13:17.772Z,7.37
2018-12-19T05:15:45.899Z,6.97
2018-12-19T05:18:14.015Z,6.53
2018-12-19T05:20:42.146Z,7.03
2018-12-19T05:23:10.263Z,6.97
2018-12-19T05:25:38.404Z,8.77
2018-12-19T05:28:06.533Z,7.97
2018-12-19T05:30:34.658Z,7.50
2018-12-19T05:33:02.776Z,7.20
2018-12-19T05:35:30.904Z,7.50
2018-12-19T05:37:59.012Z,9.43
2018-12-19T05:40:27.145Z,7.43
2018-12-19T05:42:55.270Z,8.17
2018-12-19T05:45:23.390Z,5.60
2018-12-19T05:47:51.517Z,7.67
2018-12-19T05:50:20.131Z,6.50
2018-12-19T05:52:48.242Z,7.93
2018-12-19T05:55:16.386Z,7.30
2018-12-19T05:57:44.679Z,5.60
2018-12-19T06:00:12.882Z,6.37
2018-12-19T06:02:40.991Z,7.33
2018-12-19T06:05:09.115Z,6.67
2018-12-19T06:07:37.245Z,7.13
2018-12-19T06:10:05.360Z,6.50
2018-12-19T06:12:33.479Z,7.77
2018-12-19T06:15:01.667Z,7.20
2018-12-19T06:17:29.784Z,7.40
2018-12-19T06:19:57.902Z,8.47
2018-12-19T06:22:26.044Z,7.80
2018-12-19T06:24:54.161Z,8.33
2018-12-19T06:27:22.293Z,8.87
2018-12-19T06:29:50.421Z,9.43
2018-12-19T06:32:18.561Z,8.70
2018-12-19T06:34:46.675Z,8.80
2018-12-19T06:37:14.784Z,6.53
2018-12-19T06:39:42.903Z,7.53
2018-12-19T06:42:11.028Z,7.17
2018-12-19T06:44:39.128Z,6.00
2018-12-19T06:47:07.250Z,7.37
2018-12-19T06:49:35.383Z,7.70
2018-12-19T06:52:13.317Z,6.73
2018-12-19T06:54:41.435Z,7.50
2018-12-19T06:57:09.680Z,7.27
2018-12-19T06:59:37.980Z,6.73
2018-12-19T07:02:06.100Z,8.23
2018-12-19T07:04:34.214Z,8.67
2018-12-19T07:07:02.319Z,8.23
2018-12-19T07:09:30.425Z,8.17
2018-12-19T07:11:58.561Z,8.37
2018-12-19T07:14:26.669Z,8.10
2018-12-19T07:16:54.785Z,8.13
2018-12-19T07:19:22.895Z,8.60
2018-12-19T07:21:51.027Z,7.87
2018-12-19T07:24:19.139Z,7.30
2018-12-19T07:26:47.267Z,8.27
2018-12-19T07:29:15.365Z,7.00
2018-12-19T07:31:43.491Z,8.50
2018-12-19T07:34:11.600Z,9.30
2018-12-19T07:36:39.727Z,8.83
2018-12-19T07:39:07.937Z,8.83
2018-12-19T07:41:36.065Z,8.77
2018-12-19T07:44:04.166Z,7.97
2018-12-19T07:46:32.297Z,8.37
2018-12-19T07:49:00.451Z,8.47
2018-12-19T07:51:28.610Z,8.67
2018-12-19T07:53:56.720Z,8.13
2018-12-19T07:56:25.115Z,8.67
2018-12-19T07:58:53.244Z,8.93
2018-12-19T08:01:21.377Z,9.93
2018-12-19T08:03:49.478Z,8.37
2018-12-19T08:06:17.604Z,8.60
2018-12-19T08:08:45.722Z,8.93
2018-12-19T08:11:13.845Z,8.80
2018-12-19T08:13:41.956Z,8.17
2018-12-19T08:16:10.070Z,9.93
2018-12-19T08:18:38.177Z,9.23
2018-12-19T08:21:06.302Z,10.57
2018-12-19T08:23:34.536Z,10.53
2018-12-19T08:26:02.661Z,12.07
2018-12-19T08:28:30.774Z,11.90
2018-12-19T08:30:58.896Z,11.27
2018-12-19T08:33:27.025Z,11.17
2018-12-19T08:35:55.140Z,10.37
2018-12-19T08:38:23.321Z,10.63
2018-12-19T08:40:51.433Z,10.93
2018-12-19T08:43:19.560Z,9.40
2018-12-19T08:45:48.150Z,9.20
2018-12-19T08:48:16.260Z,8.70
2018-12-19T08:50:44.361Z,7.97
2018-12-19T08:53:12.490Z,8.13
2018-12-19T08:55:40.648Z,9.77
2018-12-19T08:58:08.769Z,9.10
2018-12-19T09:00:36.891Z,9.13
2018-12-19T09:03:05.004Z,9.30
2018-12-19T09:05:33.116Z,9.00
2018-12-19T09:08:01.220Z,9.73
2018-12-19T09:10:29.325Z,9.33
2018-12-19T09:12:57.452Z,9.90
2018-12-19T09:15:31.094Z,10.43
2018-12-19T09:17:59.218Z,10.30
2018-12-19T09:20:27.612Z,10.80
2018-12-19T09:22:55.740Z,9.90
2018-12-19T09:25:23.862Z,9.63
2018-12-19T09:27:51.979Z,10.93
2018-12-19T09:30:20.102Z,9.60
2018-12-19T09:32:48.224Z,8.30
2018-12-19T09:35:16.324Z,9.23
2018-12-19T09:37:44.441Z,7.77
2018-12-19T09:40:12.541Z,8.10
2018-12-19T09:42:40.653Z,7.07
2018-12-19T09:45:08.780Z,8.63
2018-12-19T09:47:36.916Z,7.27
2018-12-19T09:50:05.205Z,10.00
2018-12-19T09:52:33.451Z,9.00
2018-12-19T09:55:01.569Z,7.90
2018-12-19T09:57:30.062Z,8.17
2018-12-19T09:59:58.163Z,9.10
2018-12-19T10:02:26.301Z,9.13
2018-12-19T10:04:54.404Z,10.10
2018-12-19T10:07:22.654Z,9.27
2018-12-19T10:09:50.767Z,8.57
2018-12-19T10:12:18.876Z,8.90
2018-12-19T10:14:46.985Z,8.07
2018-12-19T10:17:15.114Z,8.47
2018-12-19T10:19:43.222Z,8.77
2018-12-19T10:22:13.328Z,9.87
2018-12-19T10:24:46.983Z,10.17
2018-12-19T10:27:17.094Z,11.37
2018-12-19T10:29:45.202Z,11.67
2018-12-19T10:32:13.328Z,12.13
2018-12-19T10:34:43.124Z,10.70
2018-12-19T10:37:11.504Z,12.73
2018-12-19T10:39:39.680Z,6.10
2018-12-19T10:42:07.807Z,3.80
2018-12-19T10:44:35.919Z,3.40
2018-12-19T10:47:04.047Z,3.33
2018-12-19T10:49:32.164Z,3.30
2018-12-19T10:52:00.284Z,2.87
2018-12-19T10:54:28.395Z,3.37
2018-12-19T10:56:56.520Z,3.20
2018-12-19T10:59:24.642Z,2.93
2018-12-19T11:01:52.763Z,2.57
2018-12-19T11:04:20.873Z,2.50
2018-12-19T11:06:49.002Z,2.67
2018-12-19T11:09:17.128Z,5.37
2018-12-19T11:11:45.234Z,3.70
2018-12-19T11:14:13.343Z,3.20
2018-12-19T11:16:41.445Z,3.53
2018-12-19T11:19:09.569Z,7.07
2018-12-19T11:21:37.697Z,5.33
2018-12-19T11:24:05.985Z,8.10
2018-12-19T11:26:34.281Z,12.93
2018-12-19T11:29:02.881Z,7.30
2018-12-19T11:31:31.198Z,7.07
2018-12-19T11:33:59.320Z,9.67
2018-12-19T11:36:27.432Z,7.10
2018-12-19T11:38:55.580Z,8.07
2018-12-19T11:41:23.688Z,6.17
2018-12-19T11:43:51.812Z,3.90
2018-12-19T11:46:19.899Z,3.80
2018-12-19T11:48:48.010Z,8.37
2018-12-19T11:51:16.107Z,5.40
2018-12-19T11:53:44.212Z,5.10
2018-12-19T11:56:12.326Z,5.03
2018-12-19T11:58:40.432Z,5.73
2018-12-19T12:01:08.525Z,5.67
2018-12-19T12:03:36.647Z,6.83
2018-12-19T12:06:04.753Z,4.07
2018-12-19T12:08:32.877Z,4.10
2018-12-19T12:11:00.980Z,2.90
2018-12-19T12:13:29.104Z,3.40
2018-12-19T12:15:57.226Z,3.37
2018-12-19T12:18:25.351Z,3.43
2018-12-19T12:20:53.461Z,3.43
2018-12-19T12:23:21.583Z,3.20
2018-12-19T12:25:49.686Z,3.17
2018-12-19T12:28:17.794Z,3.13
2018-12-19T12:30:46.735Z,4.00
2018-12-19T12:33:14.877Z,3.67
2018-12-19T12:35:43.617Z,4.27
2018-12-19T12:38:11.732Z,4.03
2018-12-19T12:40:39.911Z,2.73
2018-12-19T12:43:08.019Z,3.53
2018-12-19T12:45:36.138Z,3.50
2018-12-19T12:48:04.303Z,2.90
2018-12-19T12:50:32.432Z,2.70
2018-12-19T12:53:00.575Z,3.13
2018-12-19T12:55:28.693Z,3.07
2018-12-19T12:57:56.829Z,3.53
2018-12-19T13:00:24.935Z,3.30
2018-12-19T13:02:53.058Z,3.33
2018-12-19T13:05:23.162Z,3.20
2018-12-19T13:07:51.284Z,3.73
2018-12-19T13:10:19.471Z,2.50
2018-12-19T13:12:47.594Z,3.13
2018-12-19T13:15:17.676Z,3.30
2018-12-19T13:17:46.078Z,3.80
2018-12-19T13:20:14.200Z,3.80
2018-12-19T13:22:42.341Z,4.30
2018-12-19T13:25:10.451Z,3.53
2018-12-19T13:27:38.556Z,3.77
2018-12-19T13:30:08.316Z,4.20
2018-12-19T13:32:36.432Z,4.60
2018-12-19T13:35:04.732Z,4.43
2018-12-19T13:37:32.845Z,4.27
2018-12-19T13:40:00.959Z,4.80
2018-12-19T13:42:29.052Z,3.80
2018-12-19T13:44:57.170Z,3.33
2018-12-19T13:47:25.282Z,3.07
2018-12-19T13:49:53.392Z,3.50
2018-12-19T13:52:21.498Z,3.47
2018-12-19T13:54:49.616Z,3.00
2018-12-19T13:57:17.734Z,3.53
2018-12-19T13:59:45.863Z,3.70
2018-12-19T14:02:13.970Z,4.50
2018-12-19T14:04:42.267Z,4.40
2018-12-19T14:07:10.646Z,3.57
2018-12-19T14:09:38.762Z,3.53
2018-12-19T14:12:12.311Z,4.87
2018-12-19T14:14:37.046Z,7.03
2018-12-19T14:17:05.192Z,8.50
2018-12-19T14:19:33.322Z,6.13
2018-12-19T14:22:01.435Z,5.43
2018-12-19T14:24:29.555Z,7.40
2018-12-19T14:26:57.686Z,6.17
2018-12-19T14:29:25.812Z,5.40
2018-12-19T14:31:53.916Z,5.60
2018-12-19T14:34:22.054Z,3.77
2018-12-19T14:36:50.162Z,3.17
2018-12-19T14:39:18.293Z,2.53
2018-12-19T14:41:46.412Z,3.47
2018-12-19T14:44:14.546Z,3.30
2018-12-19T14:46:42.650Z,3.50
2018-12-19T14:49:13.970Z,4.03
2018-12-19T14:51:41.024Z,4.00
2018-12-19T14:54:09.145Z,3.87
2018-12-19T14:56:37.248Z,3.00
2018-12-19T14:59:05.388Z,3.47
2018-12-19T15:01:33.508Z,3.40
2018-12-19T15:04:01.640Z,3.27
2018-12-19T15:06:29.785Z,3.40
2018-12-19T15:08:57.910Z,4.50
2018-12-19T15:11:27.042Z,6.70
2018-12-19T15:13:55.287Z,7.23
2018-12-19T15:16:23.404Z,6.87
2018-12-19T15:18:51.526Z,5.47
2018-12-19T15:21:19.649Z,6.40
2018-12-19T15:23:47.817Z,3.90
2018-12-19T15:26:15.943Z,5.50
2018-12-19T15:28:44.066Z,6.10
2018-12-19T15:31:12.185Z,5.50
2018-12-19T15:33:40.317Z,5.03
2018-12-19T15:36:08.430Z,4.77
2018-12-19T15:38:36.559Z,7.07
2018-12-19T15:41:04.709Z,5.80
2018-12-19T15:43:32.834Z,4.83
2018-12-19T15:46:00.959Z,3.97
2018-12-19T15:48:29.073Z,4.30
2018-12-19T15:50:57.189Z,3.80
2018-12-19T15:53:25.351Z,4.03
2018-12-19T15:55:53.509Z,5.83
2018-12-19T15:58:21.656Z,4.03
2018-12-19T16:00:49.798Z,3.60
2018-12-19T16:03:17.922Z,4.63
2018-12-19T16:05:46.058Z,4.23
2018-12-19T16:08:14.174Z,4.60
2018-12-19T16:10:42.298Z,4.10
2018-12-19T16:13:10.416Z,3.87
2018-12-19T16:15:38.537Z,3.60
2018-12-19T16:18:06.679Z,4.67
2018-12-19T16:20:34.832Z,3.40
2018-12-19T16:23:02.980Z,4.40
2018-12-19T16:25:31.130Z,4.00
2018-12-19T16:28:00.009Z,5.97
2018-12-19T16:30:28.156Z,5.43
2018-12-19T16:32:56.273Z,6.13
2018-12-19T16:35:25.151Z,4.67
2018-12-19T16:37:53.271Z,5.50
2018-12-19T16:40:21.392Z,5.03
2018-12-19T16:42:49.523Z,6.00
2018-12-19T16:45:17.665Z,6.63
2018-12-19T16:47:45.786Z,6.60
2018-12-19T16:50:13.907Z,4.83
2018-12-19T16:52:42.004Z,5.40
2018-12-19T16:55:10.230Z,6.47
2018-12-19T16:57:38.412Z,5.57
2018-12-19T17:00:09.232Z,4.40
2018-12-19T17:02:37.343Z,3.90
2018-12-19T17:05:06.516Z,3.60
2018-12-19T17:07:34.651Z,4.27
2018-12-19T17:10:02.775Z,4.77
2018-12-19T17:12:30.888Z,3.80
2018-12-19T17:15:00.506Z,4.97
2018-12-19T17:17:28.780Z,6.43
2018-12-19T17:19:56.912Z,5.47
2018-12-19T17:22:25.051Z,5.43
2018-12-19T17:24:53.174Z,13.70
2018-12-19T17:27:21.290Z,7.70
2018-12-19T17:29:49.428Z,6.00
2018-12-19T17:32:17.724Z,6.90
2018-12-19T17:34:45.835Z,7.13
2018-12-19T17:37:13.970Z,6.50
2018-12-19T17:39:42.106Z,8.90
2018-12-19T17:42:10.232Z,7.67
2018-12-19T17:44:38.368Z,9.33
2018-12-19T17:47:06.495Z,6.07
2018-12-19T17:49:34.623Z,7.47
2018-12-19T17:52:02.753Z,6.40
2018-12-19T17:54:30.878Z,5.93
2018-12-19T17:56:59.003Z,6.27
2018-12-19T17:59:27.296Z,5.63
2018-12-19T18:01:55.503Z,5.50
2018-12-19T18:04:23.775Z,8.23
2018-12-19T18:06:51.900Z,5.70
2018-12-19T18:09:20.029Z,6.70
2018-12-19T18:11:48.266Z,5.10
2018-12-19T18:14:16.382Z,5.80
2018-12-19T18:16:44.510Z,5.23
2018-12-19T18:19:12.631Z,6.83
2018-12-19T18:21:40.792Z,5.57
2018-12-19T18:24:08.905Z,6.07
2018-12-19T18:26:37.018Z,6.57
2018-12-19T18:29:05.139Z,6.33
2018-12-19T18:31:33.267Z,7.90
2018-12-19T18:34:01.379Z,8.13
2018-12-19T18:36:29.491Z,7.00
2018-12-19T18:38:57.636Z,6.77
2018-12-19T18:41:25.753Z,7.17
2018-12-19T18:43:53.850Z,6.70
2018-12-19T18:46:22.020Z,6.73
2018-12-19T18:48:50.128Z,6.50
2018-12-19T18:51:18.379Z,6.87
2018-12-19T18:53:46.489Z,6.77
2018-12-19T18:56:14.607Z,6.97
2018-12-19T18:58:42.722Z,7.43
2018-12-19T19:01:10.939Z,7.00
2018-12-19T19:03:39.045Z,9.87
2018-12-19T19:06:07.196Z,9.40
2018-12-19T19:08:35.417Z,7.13
2018-12-19T19:11:03.547Z,10.70
2018-12-19T19:13:31.651Z,9.53
2018-12-19T19:15:59.773Z,9.40
2018-12-19T19:18:27.888Z,9.27
2018-12-19T19:20:56.008Z,8.70
2018-12-19T19:23:24.133Z,10.43
2018-12-19T19:25:52.308Z,8.93
2018-12-19T19:28:20.437Z,10.13
2018-12-19T19:30:48.564Z,8.27
2018-12-19T19:33:16.680Z,10.13
2018-12-19T19:35:44.818Z,10.00
2018-12-19T19:38:12.920Z,9.40
2018-12-19T19:40:41.041Z,12.67
2018-12-19T19:43:09.153Z,11.60
2018-12-19T19:45:37.297Z,11.03
2018-12-19T19:48:05.440Z,11.47
2018-12-19T19:50:33.571Z,10.97
2018-12-19T19:53:01.681Z,15.37
2018-12-19T19:55:29.829Z,13.97
2018-12-19T19:57:57.936Z,10.70
2018-12-19T20:00:28.841Z,12.30
2018-12-19T20:02:56.948Z,10.17
2018-12-19T20:05:25.061Z,10.10
2018-12-19T20:07:53.175Z,10.47
2018-12-19T20:10:21.358Z,10.30
2018-12-19T20:12:49.472Z,7.80
2018-12-19T20:15:17.596Z,7.47
2018-12-19T20:17:45.697Z,5.63
2018-12-19T20:20:13.834Z,5.17
2018-12-19T20:22:41.960Z,5.03
2018-12-19T20:25:10.068Z,4.23
2018-12-19T20:27:38.219Z,3.80
2018-12-19T20:30:09.207Z,4.20
2018-12-19T20:32:37.327Z,4.23
2018-12-19T20:35:05.624Z,3.80
2018-12-19T20:37:33.745Z,4.10
2018-12-19T20:40:01.989Z,4.33
2018-12-19T20:42:30.125Z,4.40
2018-12-19T20:44:58.222Z,4.60
2018-12-19T20:47:26.410Z,3.10
2018-12-19T20:49:54.530Z,3.33
2018-12-19T20:52:22.715Z,3.50
2018-12-19T20:54:50.821Z,3.57
2018-12-19T20:57:19.067Z,2.83
2018-12-19T20:59:47.332Z,3.67
2018-12-19T21:02:15.581Z,3.40
2018-12-19T21:04:43.803Z,4.23
2018-12-19T21:07:11.943Z,3.70
2018-12-19T21:09:40.061Z,3.67
2018-12-19T21:12:08.189Z,3.97
2018-12-19T21:14:36.285Z,3.70
2018-12-19T21:17:09.884Z,4.07
2018-12-19T21:19:38.147Z,3.33
2018-12-19T21:22:08.352Z,3.77
2018-12-19T21:24:36.459Z,4.60
2018-12-19T21:27:04.572Z,5.07
2018-12-19T21:29:32.694Z,5.10
2018-12-19T21:32:00.820Z,3.87
2018-12-19T21:34:28.959Z,5.20
2018-12-19T21:36:57.130Z,5.90
2018-12-19T21:39:25.382Z,5.63
2018-12-19T21:41:53.630Z,5.50
2018-12-19T21:44:21.834Z,5.27
2018-12-19T21:46:49.974Z,5.33
2018-12-19T21:49:18.150Z,4.73
2018-12-19T21:51:46.361Z,4.17
2018-12-19T21:54:14.465Z,4.50
2018-12-19T21:56:42.653Z,5.07
2018-12-19T21:59:10.890Z,5.20
2018-12-19T22:01:39.083Z,6.80
2018-12-19T22:04:07.269Z,5.30
2018-12-19T22:06:35.444Z,4.07
2018-12-19T22:09:06.532Z,4.10
2018-12-19T22:11:34.754Z,4.73
2018-12-19T22:14:02.882Z,4.03
2018-12-19T22:19:37.827Z,3.47
2018-12-19T22:22:06.084Z,3.50
2018-12-19T22:24:34.198Z,3.50
2018-12-19T22:27:02.376Z,4.17
2018-12-19T22:29:30.604Z,3.83
2018-12-19T22:31:58.798Z,4.00
2018-12-19T22:34:26.933Z,5.07
2018-12-19T22:36:55.239Z,4.90
2018-12-19T22:39:23.429Z,5.40
2018-12-19T22:41:52.812Z,4.90
2018-12-19T22:44:21.286Z,5.37
2018-12-19T22:46:49.411Z,4.63
2018-12-19T22:49:17.636Z,5.20
2018-12-19T22:51:45.758Z,5.13
2018-12-19T22:54:13.873Z,4.20
2018-12-19T22:56:42.002Z,4.40
2018-12-19T22:59:10.109Z,4.93
2018-12-19T23:01:43.868Z,4.63
2018-12-19T23:04:12.124Z,5.23
2018-12-19T23:06:40.292Z,4.77
2018-12-19T23:09:08.402Z,5.13
2018-12-19T23:11:36.677Z,5.23
2018-12-19T23:14:04.918Z,4.30
2018-12-19T23:16:33.109Z,3.93
2018-12-19T23:19:01.308Z,2.93
2018-12-19T23:21:29.619Z,3.67
2018-12-19T23:23:57.845Z,3.70
2018-12-19T23:26:26.020Z,3.17
2018-12-19T23:28:56.232Z,3.97
2018-12-19T23:31:24.393Z,3.03
2018-12-19T23:33:52.604Z,3.17
2018-12-19T23:36:20.707Z,3.20
2018-12-19T23:38:48.985Z,3.20
2018-12-19T23:41:17.225Z,3.47
2018-12-19T23:43:45.421Z,3.00
2018-12-19T23:46:13.519Z,3.30
2018-12-19T23:48:41.735Z,3.17
2018-12-19T23:51:09.872Z,3.17
2018-12-19T23:53:38.083Z,4.10
2018-12-19T23:56:06.317Z,3.57
2018-12-19T23:58:34.501Z,4.07
